createdAt,value
2023-02-14T00:03:31.089Z,65490.09
2023-02-14T00:08:35.889Z,65458.84
2023-02-14T00:14:02.006Z,65458.84
2023-02-14T00:19:06.435Z,65474.31
2023-02-14T00:24:13.317Z,65514.19
2023-02-14T00:29:21.178Z,65528.03
2023-02-14T00:34:27.816Z,65482.19
2023-02-14T00:39:32.527Z,65514.28
2023-02-14T00:44:38.445Z,65500.00
2023-02-14T00:49:43.162Z,65498.09
2023-02-14T00:54:47.733Z,65474.72
2023-02-14T00:59:53.822Z,65470.66
2023-02-14T01:04:58.651Z,65479.88
2023-02-14T01:10:03.113Z,65476.53
2023-02-14T01:15:10.563Z,65467.28
2023-02-14T01:20:15.932Z,65475.81
2023-02-14T01:25:20.503Z,65462.47
2023-02-14T01:30:27.139Z,65473.66
2023-02-14T01:35:31.956Z,65441.78
2023-02-14T01:40:36.415Z,65474.41
2023-02-14T01:45:43.807Z,65444.03
2023-02-14T01:50:50.712Z,65499.16
2023-02-14T01:56:03.942Z,65451.72
2023-02-14T02:01:10.153Z,65476.53
2023-02-14T02:06:18.160Z,65468.53
2023-02-14T02:11:22.695Z,65463.09
2023-02-14T02:16:48.756Z,65475.72
2023-02-14T02:22:21.633Z,65437.44
2023-02-14T02:28:02.705Z,65500.00
2023-02-14T02:33:49.622Z,65478.13
2023-02-14T02:39:11.837Z,65476.78
2023-02-14T02:44:20.817Z,65518.53
2023-02-14T02:49:57.737Z,65533.38
2023-02-14T02:55:09.194Z,65521.75
2023-02-14T03:00:16.521Z,65526.00
2023-02-14T03:05:21.437Z,65571.75
2023-02-14T03:10:33.531Z,65537.63
2023-02-14T03:15:54.158Z,65521.84
2023-02-14T03:21:06.232Z,65544.22
2023-02-14T03:26:17.742Z,65585.84
2023-02-14T03:31:31.310Z,65514.13
2023-02-14T03:36:42.547Z,65555.25
2023-02-14T03:41:54.628Z,65515.88
2023-02-14T03:47:02.422Z,65555.78
2023-02-14T03:52:11.183Z,65469.84
2023-02-14T03:57:22.248Z,65571.88
2023-02-14T04:02:35.555Z,65544.75
2023-02-14T04:07:49.273Z,65523.25
2023-02-14T04:12:58.759Z,65504.59
2023-02-14T04:18:38.542Z,65545.63
2023-02-14T04:23:46.567Z,65561.09
2023-02-14T04:28:55.811Z,65533.38
2023-02-14T04:34:03.859Z,65514.59
2023-02-14T04:39:11.661Z,65504.16
2023-02-14T04:44:21.011Z,65549.56
2023-02-14T04:49:29.549Z,65545.00
2023-02-14T04:54:37.654Z,65486.47
2023-02-14T04:59:47.072Z,65471.72
2023-02-14T05:04:54.801Z,65515.78
2023-02-14T05:10:02.616Z,65500.44
2023-02-14T05:15:12.566Z,65475.38
2023-02-14T05:20:20.316Z,65483.28
2023-02-14T05:25:29.517Z,65475.47
2023-02-14T05:30:40.006Z,65484.97
2023-02-14T05:35:48.190Z,65498.72
2023-02-14T05:40:56.117Z,65512.69
2023-02-14T05:46:05.633Z,65521.31
2023-02-14T05:51:14.417Z,65560.13
2023-02-14T05:56:21.215Z,65533.38
2023-02-14T06:01:29.824Z,65531.44
2023-02-14T06:06:37.603Z,65538.16
2023-02-14T06:11:45.683Z,65535.50
2023-02-14T06:16:55.041Z,65560.03
2023-02-14T06:22:02.806Z,65551.78
2023-02-14T06:27:09.029Z,65502.47
2023-02-14T06:32:17.968Z,65515.69
2023-02-14T06:37:26.104Z,65536.56
2023-02-14T06:42:33.786Z,65512.06
2023-02-14T06:47:43.116Z,65537.84
2023-02-14T06:52:51.809Z,65549.38
2023-02-14T06:57:59.509Z,65508.00
2023-02-14T07:03:06.954Z,65514.19
2023-02-14T07:08:14.438Z,65504.06
2023-02-14T07:13:21.689Z,65554.81
2023-02-14T07:18:30.236Z,65563.78
2023-02-14T07:23:37.062Z,65520.56
2023-02-14T07:28:45.180Z,65566.44
2023-02-14T07:33:54.935Z,65568.03
2023-02-14T07:39:01.560Z,65561.75
2023-02-14T07:44:08.732Z,65516.31
2023-02-14T07:49:17.709Z,65564.31
2023-02-14T07:54:26.119Z,65569.00
2023-02-14T07:59:33.598Z,65622.13
2023-02-14T08:04:42.539Z,65539.75
2023-02-14T08:09:50.097Z,65596.41
2023-02-14T08:15:16.833Z,65553.66
2023-02-14T08:20:25.339Z,65594.47
2023-02-14T08:25:33.138Z,65612.41
2023-02-14T08:30:40.964Z,65605.47
2023-02-14T08:35:50.697Z,65590.97
2023-02-14T08:41:05.114Z,65609.19
2023-02-14T08:46:15.567Z,65595.44
2023-02-14T08:51:26.729Z,65563.44
2023-02-14T08:56:34.583Z,65588.41
2023-02-14T09:01:45.368Z,65622.66
2023-02-14T09:06:54.784Z,65629.91
2023-02-14T09:12:06.865Z,65661.13
2023-02-14T09:17:16.008Z,65637.41
2023-02-14T09:22:25.091Z,65603.88
2023-02-14T09:27:33.170Z,65658.09
2023-02-14T09:32:41.758Z,65664.59
2023-02-14T09:38:10.362Z,65643.47
2023-02-14T09:43:25.284Z,65649.31
2023-02-14T09:48:42.049Z,65685.00
2023-02-14T09:53:57.437Z,65720.75
2023-02-14T09:59:12.325Z,65715.84
2023-02-14T10:04:29.250Z,65679.56
2023-02-14T10:10:02.399Z,65629.56
2023-02-14T10:15:18.010Z,65650.72
2023-02-14T10:20:30.733Z,65701.09
2023-02-14T10:25:47.393Z,65701.63
2023-02-14T10:31:05.637Z,65709.09
2023-02-14T10:36:22.719Z,65644.84
2023-02-14T10:41:42.003Z,65687.13
2023-02-14T10:46:57.422Z,65698.53
2023-02-14T10:52:14.730Z,65691.75
2023-02-14T10:57:29.028Z,65661.50
2023-02-14T11:02:40.389Z,65726.13
2023-02-14T11:07:46.608Z,65723.53
2023-02-14T11:12:53.485Z,65700.38
2023-02-14T11:18:19.037Z,65747.91
2023-02-14T11:23:26.958Z,65682.97
2023-02-14T11:28:37.413Z,65696.84
2023-02-14T11:33:51.370Z,65777.47
2023-02-14T11:39:09.487Z,65735.28
2023-02-14T11:44:23.232Z,65796.28
2023-02-14T11:49:34.137Z,65795.13
2023-02-14T11:54:45.402Z,65817.91
2023-02-14T11:59:57.173Z,65817.47
2023-02-14T12:05:08.014Z,65796.63
2023-02-14T12:10:28.983Z,65870.41
2023-02-14T12:15:41.024Z,65911.91
2023-02-14T12:20:56.742Z,65845.81
2023-02-14T12:26:06.958Z,65893.94
2023-02-14T12:31:14.814Z,65860.88
2023-02-14T12:36:36.533Z,65861.31
2023-02-14T12:41:51.784Z,65813.19
2023-02-14T12:47:11.478Z,65917.53
2023-02-14T12:52:37.233Z,65909.41
2023-02-14T12:57:47.076Z,65961.84
2023-02-14T13:03:23.268Z,65950.59
2023-02-14T13:09:02.042Z,65881.72
2023-02-14T13:14:24.307Z,65899.25
2023-02-14T13:19:44.569Z,65812.66
2023-02-14T13:24:55.320Z,65832.53
2023-02-14T13:30:05.161Z,65827.72
2023-02-14T13:35:20.635Z,65851.25
2023-02-14T13:40:30.679Z,65852.31
2023-02-14T13:46:08.040Z,65867.81
2023-02-14T13:51:15.613Z,65829.13
2023-02-14T13:56:43.472Z,65819.09
2023-02-14T14:01:52.157Z,65801.53
2023-02-14T14:07:23.840Z,65816.50
2023-02-14T14:12:44.629Z,65767.78
2023-02-14T14:18:11.072Z,65776.31
2023-02-14T14:23:39.030Z,65752.19
2023-02-14T14:28:49.113Z,65772.66
2023-02-14T14:34:01.329Z,65760.91
2023-02-14T14:39:11.938Z,65753.44
2023-02-14T14:44:18.104Z,65734.63
2023-02-14T14:49:23.100Z,65770.44
2023-02-14T14:54:33.132Z,65747.47
2023-02-14T14:59:40.317Z,65694.69
2023-02-14T15:04:46.134Z,65702.28
2023-02-14T15:09:53.333Z,65710.28
2023-02-14T15:15:00.958Z,65706.34
2023-02-14T15:20:11.940Z,65710.53
2023-02-14T15:25:22.248Z,65747.38
2023-02-14T15:30:34.046Z,65716.06
2023-02-14T15:35:44.422Z,65676.00
2023-02-14T15:40:55.045Z,65703.13
2023-02-14T15:46:17.586Z,65713.81
2023-02-14T15:51:27.998Z,65706.44
2023-02-14T15:56:39.212Z,65670.13
2023-02-14T16:01:53.262Z,65645.50
2023-02-14T16:07:09.670Z,65683.38
2023-02-14T16:12:33.914Z,65662.78
2023-02-14T16:17:40.286Z,65689.88
2023-02-14T16:22:44.648Z,65703.66
2023-02-14T16:27:51.360Z,65628.84
2023-02-14T16:32:57.269Z,65690.88
2023-02-14T16:38:01.438Z,65698.88
2023-02-14T16:43:07.487Z,65687.03
2023-02-14T16:48:11.710Z,65655.00
2023-02-14T16:53:27.338Z,65670.47
2023-02-14T16:58:36.327Z,65671.63
2023-02-14T17:03:44.762Z,65659.81
2023-02-14T17:08:52.866Z,65658.31
2023-02-14T17:13:59.348Z,65679.13
2023-02-14T17:19:04.628Z,65651.25
2023-02-14T17:24:10.632Z,65645.38
2023-02-14T17:29:16.992Z,65658.84
2023-02-14T17:34:21.661Z,65696.22
2023-02-14T17:39:26.260Z,65671.09
2023-02-14T17:44:36.014Z,65634.38
2023-02-14T17:49:41.996Z,65642.72
2023-02-14T17:54:46.262Z,65673.88
2023-02-14T17:59:52.356Z,65632.25
2023-02-14T18:04:57.902Z,65657.78
2023-02-14T18:10:02.433Z,65693.44
2023-02-14T18:15:09.416Z,65680.09
2023-02-14T18:20:14.352Z,65647.00
2023-02-14T18:25:19.061Z,65693.97
2023-02-14T18:30:25.531Z,65704.75
2023-02-14T18:35:30.224Z,65710.19
2023-02-14T18:40:35.219Z,65724.59
2023-02-14T18:45:41.834Z,65669.06
2023-02-14T18:50:47.650Z,65701.63
2023-02-14T18:55:52.395Z,65654.56
2023-02-14T19:00:59.371Z,65595.44
2023-02-14T19:06:04.756Z,65576.44
2023-02-14T19:11:12.107Z,65593.31
2023-02-14T19:16:20.716Z,65639.09
2023-02-14T19:21:28.229Z,65675.47
2023-02-14T19:26:35.069Z,65667.03
2023-02-14T19:31:43.521Z,65649.03
2023-02-14T19:36:49.116Z,65656.63
2023-02-14T19:41:53.794Z,65655.72
2023-02-14T19:47:04.204Z,65648.78
2023-02-14T19:52:25.798Z,65702.06
2023-02-14T19:57:31.130Z,65715.63
2023-02-14T20:02:37.280Z,65705.09
2023-02-14T20:07:43.463Z,65677.53
2023-02-14T20:12:47.761Z,65695.25
2023-02-14T20:17:53.681Z,65657.88
2023-02-14T20:22:57.817Z,65601.72
2023-02-14T20:28:02.629Z,65674.31
2023-02-14T20:33:08.788Z,65687.03
2023-02-14T20:38:13.439Z,65638.56
2023-02-14T20:43:17.986Z,65653.31
2023-02-14T20:48:24.095Z,65654.47
2023-02-14T20:53:29.363Z,65726.19
2023-02-14T20:58:34.691Z,65610.81
2023-02-14T21:03:41.793Z,65576.56
2023-02-14T21:08:46.667Z,65592.16
2023-02-14T21:13:52.147Z,65548.94
2023-02-14T21:19:00.314Z,65536.13
2023-02-14T21:24:06.776Z,65535.69
2023-02-14T21:29:11.594Z,65557.56
2023-02-14T21:34:18.043Z,65532.41
2023-02-14T21:39:27.554Z,65634.91
2023-02-14T21:44:49.300Z,65592.69
2023-02-14T21:50:12.240Z,65634.28
2023-02-14T21:55:17.632Z,65575.41
2023-02-14T22:00:23.541Z,65619.78
2023-02-14T22:05:29.532Z,65576.66
2023-02-14T22:10:33.853Z,65570.91
2023-02-14T22:15:41.549Z,65613.56
2023-02-14T22:20:47.986Z,65635.81
2023-02-14T22:25:52.561Z,65630.00
2023-02-14T22:31:01.243Z,65655.53
2023-02-14T22:36:08.554Z,65533.56
2023-02-14T22:41:15.410Z,65501.16
2023-02-14T22:46:21.963Z,65519.72
2023-02-14T22:51:30.925Z,65646.66
2023-02-14T22:56:38.809Z,65721.22
2023-02-14T23:01:43.419Z,65614.63
2023-02-14T23:06:50.282Z,65594.16
2023-02-14T23:11:56.305Z,65586.91
2023-02-14T23:17:14.416Z,65599.72
2023-02-14T23:22:22.060Z,65569.84
2023-02-14T23:27:31.044Z,65637.50
2023-02-14T23:32:35.478Z,65592.44
2023-02-14T23:37:41.865Z,65585.13
2023-02-14T23:42:46.211Z,65562.16
2023-02-14T23:47:50.744Z,65537.84
2023-02-14T23:52:57.523Z,65523.88
2023-02-14T23:58:02.053Z,65497.75
